x

Santa Monica Basin - 33nm Wsw Of Santa Monica, Ca (46025) Wave Buoy

8:50pm - Wed 1st Oct 2014 All times are PDT. -7 hours from GMT.

  • Sig Wave height 3.0ft
  • Swell Direction
  • Peak Period 11s
  • Average Period 7s
  • Wind
    4mph, 7mph gusts
  • Sea Temp 70°f
  • Air Temp 67°f
  • Sea Pressure 1010.4mb
  • Santa Monica Basin - 33nm Wsw Of Santa Monica, Ca
  • Santa Monica Basin - 33nm Wsw Of Santa Monica, Ca

More Historic Weather Station data

Upgrade to MSW Pro to gain access to the past 30 days of data for over 8000 Wavebouys and Weather Stations around the globe.

Join Pro

Comparision Forecast

View Surf forecast
   
Wed 10/01 8:50pm 3ft 11s 7s 4 7 mph 1010.4mb 70f 67f
7:50pm 3ft 11s 7s 7
mph
1009.4mb 70f 67f
6:50pm 3.5ft 11s 7s 9
mph
1008.9mb 71f 67f
4:50pm 3.5ft 11s 7s 7 9 mph 1008.6mb 71f 67f
3:50pm 3.5ft 10s 7s 9 11 mph 1008.6mb 71f 66f
2:50pm 3.5ft 15s 7s 7 9 mph 1008.4mb 71f 66f
1:50pm 3.5ft 11s 7s 7
mph
1008.9mb 71f 65f
12:50pm 3.5ft 8s 6s 7 9 mph 1009.3mb 70f 66f
11:50am 3.5ft 10s 7s 9 11 mph 1009.4mb 70f 66f
10:50am 3.5ft 11s 6s 9 11 mph 1009.8mb 70f 67f
9:50am 3.5ft 11s 6s 11 13 mph 1009.6mb 70f 66f
8:50am 3.5ft 11s 6s 9
mph
1009.2mb 70f 67f
7:50am 3.5ft 8s 6s 9 13 mph 1008.7mb 69f 66f
6:50am 3.5ft 8s 6s 9 11 mph 1008.1mb 69f 66f
5:50am 3.5ft 7s 6s 11 13 mph 1007.5mb 70f 66f
4:50am 3.5ft 6s 6s 13 16 mph 1007.3mb 69f 67f
3:50am 3.5ft 6s 6s 11
mph
1006.8mb 70f 67f
2:50am 3.5ft 5s 5s 9
mph
1007.2mb 70f 67f
1:50am 4.5ft 6s 5s 4 7 mph 1007.1mb 70f 67f
Tue 09/30 11:50pm 5ft 6s 6s 2 4 mph 1007.5mb 71f 67f
10:50pm 4.5ft 6s 6s 4 7 mph 1007.5mb 71f 67f
9:50pm 4.5ft 7s 6s 4 7 mph 1007.5mb 71f 68f
8:50pm 4ft 6s 5s 2 4 mph 1007.6mb 71f 67f
7:50pm 3.5ft 11s 5s 4
mph
1007.6mb 71f 67f
6:50pm 3ft 12s 6s 11 13 mph 1007.5mb 71f 67f
5:50pm 2.5ft 12s 6s 11 13 mph 1007.7mb 71f 68f
4:50pm 2.5ft 9s 6s 9 11 mph 1007.9mb 71f 69f
3:50pm 2.5ft 12s 6s 11 13 mph 1008.2mb 72f 69f
2:50pm 2.5ft 11s 6s 7 9 mph 1008.5mb 72f 69f
1:50pm 2.5ft 12s 6s 4 7 mph 1009.4mb 73f 69f
12:50pm 2.5ft 11s 6s 4
mph
1010mb 72f 69f
11:50am 2.5ft 11s 6s 2 4 mph 1010.9mb 71f 69f
10:50am 2.5ft 11s 6s 7
mph
1011.1mb 71f 69f
9:50am 2.5ft 11s 6s 7
mph
1011.1mb 70f 68f
8:50am 2.5ft 12s 6s 7 9 mph 1010.8mb 70f 68f
7:50am 2.5ft 14s 6s 4 7 mph 1010.7mb 70f 68f
6:50am 2.5ft 12s 6s 7
mph
1010.2mb 70f 68f
5:50am 2.5ft 7s 5s 11 13 mph 1009.9mb 70f 68f
4:50am 3ft 7s 5s 13 16 mph 1009.8mb 70f 68f
3:50am 3ft 7s 5s 13 16 mph 1009.8mb 70f 68f
2:50am 3ft 7s 6s 11 13 mph 1010.5mb 70f 68f
1:50am 3.5ft 6s 5s 9 11 mph 1010.7mb 69f 68f
12:50am 3.5ft 7s 5s 11 13 mph 1010.7mb 69f 68f
Mon 09/29 11:50pm 3.5ft 7s 5s 9 11 mph 1011.2mb 69f 68f
10:50pm 3.5ft 5s 5s 9 11 mph 1011.2mb 69f 67f
9:50pm 3.5ft 6s 5s 9
mph
1011.4mb 68f 68f
8:50pm 3ft 5s 5s 4 7 mph 1011.2mb 68f 67f
7:50pm 2.5ft 10s 5s 2
mph
1010.8mb 68f 67f
6:50pm 2.5ft 10s 5s 9 11 mph 1010.7mb 68f 67f
5:50pm 2.5ft 10s 5s 11
mph
1010.9mb 68f 68f
4:50pm 2.5ft 10s 5s 11 13 mph 1011.2mb 68f 67f
3:50pm 2.5ft 10s 5s 13 16 mph 1011.5mb 68f 66f
2:50pm 2.5ft 11s 6s 16 18 mph 1011.6mb 69f 67f
1:50pm 2.5ft 11s 6s 9
mph
1012.1mb 68f 67f
12:50pm 2.5ft 12s 5s 9 11 mph 1013.3mb 68f 66f
11:50am 2.5ft 11s 5s 11 13 mph 1013.3mb 68f 65f
9:50am 3ft 10s 5s 13 16 mph 1013.6mb 67f 65f
8:50am 2.5ft 10s 5s 11 13 mph 1013.7mb 67f 65f
7:50am 3ft 10s 6s 11 13 mph 1013.3mb 67f 65f
6:50am 3ft 8s 6s 11
mph
1012.9mb 67f 65f
5:50am 2.5ft 10s 6s 4 7 mph 1012.7mb 67f 65f
4:50am 3ft 11s 6s 4
mph
1012.6mb 66f 64f
3:50am 3ft 11s 6s 4 7 mph 1012.4mb 67f 65f
2:50am 3ft 11s 6s 7 9 mph 1012.8mb 67f 65f
1:50am 3ft 9s 5s 4 7 mph 1013mb 68f 65f
12:50am 3ft 10s 5s 2
mph
1012.6mb 68f 65f
Sun 09/28 11:50pm 3ft 10s 5s  -  2 mph 1013mb 68f 65f
10:50pm 3.5ft 5s 5s 7
mph
1013.1mb 68f 65f
9:50pm 3.5ft 10s 5s 9 11 mph 1012.6mb 69f 66f
8:50pm 3ft 11s 5s 13 16 mph 1012.3mb 69f 66f
7:50pm 2.5ft 9s 6s 4 7 mph 1012.1mb 69f 66f
6:50pm 2.5ft 8s 6s 2 4 mph 1012mb 69f 66f
5:50pm 3ft 9s 6s 4 7 mph 1012mb 69f 67f
4:50pm 3ft 9s 6s 9
mph
1012mb 69f 67f
3:50pm 3.5ft 8s 6s 7 9 mph 1012mb 69f 66f
2:50pm 3.5ft 8s 6s 7 9 mph 1012mb 69f 66f
1:50pm 3.5ft 8s 5s 4 7 mph 1012.3mb 69f 66f
12:50pm 4ft 8s 5s 9 11 mph 1012.9mb 69f 65f
11:50am 4.5ft 7s 5s 9 11 mph 1013mb 68f 65f
10:50am 4.5ft 6s 5s 9 11 mph 1012.9mb 68f 64f
9:50am 4.5ft 6s 5s 13 16 mph 1012.9mb 68f 64f
8:50am 4.5ft 7s 6s 16
mph
1012.7mb 68f 64f
7:50am 4.5ft 6s 6s 9 11 mph 1012.2mb 68f 65f
6:50am 4.5ft 6s 6s 9 11 mph 1011.9mb 68f 65f
5:50am 4.5ft 8s 6s 11
mph
1010.9mb 68f 65f